Time;durP1;ratioP1;P1;durP2;ratioP2;P2;SDS_P1;SDS_P2;PMS_P1;PMS_P2;Temp;Humidity;BMP_temperature;BMP_pressure;BME280_temperature;BME280_humidity;BME280_pressure;Samples;Min_cycle;Max_cycle;Signal;HPM_P1;HPM_P2
2022/08/28 00:01:25;;;;;;;3.83;3.53;;;18.20;99.90;;;;;;623424;231;26785;-66
2022/08/28 00:03:53;;;;;;;3.53;3.20;;;18.10;99.90;;;;;;623481;231;26549;-66
2022/08/28 00:06:20;;;;;;;3.95;3.58;;;18.00;99.90;;;;;;623437;231;27178;-66
2022/08/28 00:08:47;;;;;;;3.45;3.10;;;18.10;99.90;;;;;;623484;231;26556;-66
2022/08/28 00:11:14;;;;;;;3.08;2.87;;;18.00;99.90;;;;;;623374;227;27095;-66
2022/08/28 00:13:41;;;;;;;3.10;2.85;;;18.00;99.90;;;;;;623445;231;26564;-66
2022/08/28 00:16:08;;;;;;;3.25;2.95;;;18.00;99.90;;;;;;623489;231;26805;-66
2022/08/28 00:18:36;;;;;;;3.10;2.60;;;18.00;99.90;;;;;;623670;228;26561;-66
2022/08/28 00:21:03;;;;;;;3.53;3.22;;;18.00;99.90;;;;;;625071;226;26582;-66
2022/08/28 00:23:31;;;;;;;3.62;2.87;;;18.00;99.90;;;;;;624584;230;26604;-66
2022/08/28 00:25:58;;;;;;;2.72;2.53;;;18.00;99.90;;;;;;624294;230;26607;-66
2022/08/28 00:28:25;;;;;;;3.42;3.12;;;18.00;99.90;;;;;;624129;230;26570;-66
2022/08/28 00:30:53;;;;;;;3.05;2.85;;;18.00;99.90;;;;;;624011;230;26645;-66
2022/08/28 00:33:22;;;;;;;3.08;2.70;;;18.10;99.90;;;;;;624008;230;26643;-66
2022/08/28 00:35:50;;;;;;;3.10;2.90;;;18.10;99.90;;;;;;623880;230;26638;-66
2022/08/28 00:38:18;;;;;;;4.10;3.20;;;18.10;99.90;;;;;;623746;230;26543;-66
2022/08/28 00:40:45;;;;;;;6.55;3.25;;;18.10;99.90;;;;;;623710;230;26595;-66
2022/08/28 00:43:29;;;;;;;2.97;2.78;;;18.10;99.90;;;;;;623784;231;26524;-66
2022/08/28 00:45:56;;;;;;;3.22;2.45;;;18.10;99.90;;;;;;622458;231;26548;-66
2022/08/28 00:48:23;;;;;;;3.53;3.22;;;18.10;99.90;;;;;;623742;230;26819;-66
2022/08/28 00:53:23;;;;;;;8.73;3.28;;;18.10;99.90;;;;;;623784;230;26559;-65
2022/08/28 00:55:51;;;;;;;3.47;3.10;;;18.00;99.90;;;;;;623526;231;26739;-65
2022/08/28 00:58:19;;;;;;;5.00;3.58;;;18.00;99.90;;;;;;623539;231;26594;-65
2022/08/28 01:00:45;;;;;;;4.68;3.75;;;18.10;99.90;;;;;;622498;230;26967;-65
2022/08/28 01:03:12;;;;;;;6.12;3.85;;;18.10;99.90;;;;;;623021;229;26607;-65
2022/08/28 01:05:45;;;;;;;5.40;4.55;;;18.00;99.90;;;;;;622634;230;26855;-65
2022/08/28 01:08:07;;;;;;;8.25;4.07;;;18.00;99.90;;;;;;621561;230;26850;-65
2022/08/28 01:10:35;;;;;;;4.22;3.45;;;18.00;99.90;;;;;;622241;230;26627;-65
2022/08/28 01:13:02;;;;;;;6.97;3.60;;;18.00;99.90;;;;;;621633;230;27322;-65
2022/08/28 01:15:31;;;;;;;4.68;3.50;;;18.10;99.90;;;;;;623203;230;26607;-66
2022/08/28 01:17:58;;;;;;;6.45;3.92;;;18.10;99.90;;;;;;622884;230;26584;-66
2022/08/28 01:20:25;;;;;;;4.85;3.25;;;18.10;99.90;;;;;;622109;227;26635;-65
2022/08/28 01:22:56;;;;;;;8.48;3.60;;;18.10;99.90;;;;;;620782;230;26616;-65
2022/08/28 01:25:23;;;;;;;3.62;3.25;;;18.10;99.90;;;;;;617931;232;26633;-65
2022/08/28 01:27:50;;;;;;;4.37;3.72;;;18.10;99.90;;;;;;618709;231;27275;-65
2022/08/28 01:30:18;;;;;;;4.10;2.80;;;18.10;99.90;;;;;;618966;230;26845;-65
2022/08/28 01:32:46;;;;;;;5.60;3.60;;;18.10;99.90;;;;;;620192;230;26607;-65
2022/08/28 01:35:12;;;;;;;7.40;3.62;;;18.00;99.90;;;;;;619701;231;26788;-65
2022/08/28 01:37:40;;;;;;;5.97;3.12;;;18.10;99.90;;;;;;619488;231;26800;-65
2022/08/28 01:40:08;;;;;;;3.67;3.00;;;18.10;99.90;;;;;;619379;229;26569;-65
2022/08/28 01:42:37;;;;;;;5.95;3.58;;;18.10;99.90;;;;;;619286;231;26566;-66
2022/08/28 01:45:04;;;;;;;3.10;2.58;;;18.10;99.90;;;;;;619193;231;26533;-65
2022/08/28 01:47:32;;;;;;;4.65;3.15;;;18.10;99.90;;;;;;619273;231;26530;-65
2022/08/28 01:50:00;;;;;;;3.97;2.60;;;18.10;99.90;;;;;;619000;230;26797;-65
2022/08/28 01:52:30;;;;;;;4.12;2.90;;;18.10;99.90;;;;;;618967;232;26590;-65
2022/08/28 01:54:56;;;;;;;3.78;3.33;;;18.10;99.90;;;;;;618840;232;26593;-65
2022/08/28 01:57:24;;;;;;;3.50;3.05;;;18.10;99.90;;;;;;618947;232;26610;-65
2022/08/28 01:59:53;;;;;;;6.37;3.10;;;18.10;99.90;;;;;;618924;231;26629;-65
2022/08/28 02:02:19;;;;;;;3.45;3.15;;;18.10;99.90;;;;;;618879;232;26608;-65
2022/08/28 02:04:46;;;;;;;3.67;3.00;;;18.10;99.90;;;;;;618953;231;26612;-65
2022/08/28 02:07:15;;;;;;;3.72;3.12;;;18.20;99.90;;;;;;618782;232;27238;-65
2022/08/28 02:09:40;;;;;;;4.15;3.05;;;18.20;99.90;;;;;;618501;232;26602;-65
2022/08/28 02:12:07;;;;;;;4.57;3.08;;;18.20;99.90;;;;;;618601;229;26869;-65
2022/08/28 02:14:35;;;;;;;4.72;3.53;;;18.20;99.90;;;;;;618649;231;26623;-65
2022/08/28 02:17:03;;;;;;;3.85;3.53;;;18.20;99.90;;;;;;618710;232;26808;-65
2022/08/28 02:19:31;;;;;;;5.25;3.50;;;18.20;99.90;;;;;;618696;232;26848;-65
2022/08/28 02:21:57;;;;;;;3.97;3.15;;;18.20;99.90;;;;;;618557;232;26635;-65
2022/08/28 02:24:24;;;;;;;3.80;3.50;;;18.20;99.90;;;;;;618664;232;26796;-65
2022/08/28 02:26:51;;;;;;;3.90;3.50;;;18.20;99.90;;;;;;618660;231;26593;-65
2022/08/28 02:29:19;;;;;;;5.87;3.62;;;18.20;99.90;;;;;;618653;232;26590;-65
2022/08/28 02:31:47;;;;;;;5.00;3.62;;;18.20;99.90;;;;;;618549;231;26621;-65
2022/08/28 02:34:15;;;;;;;3.83;3.20;;;18.20;99.90;;;;;;618528;231;26684;-65
2022/08/28 02:36:43;;;;;;;3.92;3.50;;;18.20;99.90;;;;;;618471;231;26617;-65
2022/08/28 02:39:10;;;;;;;5.45;3.50;;;18.20;99.90;;;;;;618540;231;26624;-65
2022/08/28 02:41:38;;;;;;;4.15;3.55;;;18.20;99.90;;;;;;618675;229;26653;-65
2022/08/28 02:44:05;;;;;;;3.70;3.17;;;18.20;99.90;;;;;;620380;231;26569;-65
2022/08/28 02:46:32;;;;;;;3.95;3.53;;;18.20;99.90;;;;;;619800;232;26830;-65
2022/08/28 02:48:59;;;;;;;4.82;3.75;;;18.20;99.90;;;;;;619483;231;26570;-64
2022/08/28 02:51:27;;;;;;;5.28;4.12;;;18.20;99.90;;;;;;619436;231;27268;-64
2022/08/28 02:53:54;;;;;;;4.53;3.35;;;18.10;99.90;;;;;;618970;232;26571;-64
2022/08/28 02:56:21;;;;;;;4.78;4.22;;;18.10;99.90;;;;;;619292;232;26791;-64
2022/08/28 02:58:48;;;;;;;5.55;3.80;;;18.10;99.90;;;;;;619485;232;26539;-64
2022/08/28 03:01:15;;;;;;;4.20;3.15;;;18.10;99.90;;;;;;619374;231;26863;-64
2022/08/28 03:03:43;;;;;;;3.87;3.58;;;18.10;99.90;;;;;;619358;232;26567;-64
2022/08/28 03:06:11;;;;;;;3.95;3.65;;;18.10;99.90;;;;;;618993;231;27211;-65
2022/08/28 03:08:38;;;;;;;5.40;3.90;;;18.10;99.90;;;;;;618907;231;26603;-65
2022/08/28 03:11:06;;;;;;;4.10;3.62;;;18.00;99.90;;;;;;618906;230;26621;-66
2022/08/28 03:13:34;;;;;;;3.22;3.03;;;18.00;99.90;;;;;;618926;232;26611;-65
2022/08/28 03:16:03;;;;;;;4.68;3.80;;;18.00;99.90;;;;;;618944;231;26622;-66
2022/08/28 03:18:29;;;;;;;3.85;3.30;;;17.90;99.90;;;;;;618778;232;26612;-66
2022/08/28 03:20:56;;;;;;;4.12;3.72;;;17.90;99.90;;;;;;618593;232;26972;-65
2022/08/28 03:23:25;;;;;;;3.65;3.35;;;17.90;99.90;;;;;;618646;231;26622;-66
2022/08/28 03:25:58;;;;;;;4.07;3.30;;;17.90;99.90;;;;;;618677;231;26998;-65
2022/08/28 03:28:25;;;;;;;3.53;3.22;;;17.90;99.90;;;;;;618576;232;26624;-65
2022/08/28 03:30:53;;;;;;;4.25;3.15;;;17.90;99.90;;;;;;618565;231;26657;-65
2022/08/28 03:33:21;;;;;;;4.62;3.80;;;17.90;99.90;;;;;;618607;231;26606;-65
2022/08/28 03:35:49;;;;;;;7.35;3.50;;;17.90;99.90;;;;;;618620;231;26604;-64
2022/08/28 03:38:17;;;;;;;5.25;2.90;;;17.80;99.90;;;;;;618673;231;26627;-64
2022/08/28 03:40:44;;;;;;;4.70;3.45;;;17.70;99.90;;;;;;618488;229;26658;-64
2022/08/28 03:43:12;;;;;;;3.90;3.55;;;17.80;99.90;;;;;;618660;231;26647;-64
2022/08/28 03:45:39;;;;;;;3.47;3.17;;;17.70;99.90;;;;;;618592;231;27280;-64
2022/08/28 03:48:06;;;;;;;6.55;3.80;;;17.70;99.90;;;;;;618686;231;26626;-64
2022/08/28 03:50:33;;;;;;;6.12;3.40;;;17.70;99.90;;;;;;618526;229;26848;-64
2022/08/28 03:53:00;;;;;;;4.05;3.05;;;17.70;99.90;;;;;;618636;231;26611;-64
2022/08/28 03:55:28;;;;;;;3.55;3.22;;;17.70;99.90;;;;;;620289;230;26842;-64
2022/08/28 03:57:55;;;;;;;3.50;3.00;;;17.70;99.90;;;;;;619699;232;26562;-64
2022/08/28 04:00:22;;;;;;;3.50;3.20;;;17.70;99.90;;;;;;619491;232;26852;-64
2022/08/28 04:02:50;;;;;;;3.17;2.95;;;17.60;99.90;;;;;;619449;232;26565;-64
2022/08/28 04:05:16;;;;;;;3.28;2.87;;;17.60;99.90;;;;;;619299;230;26761;-64
2022/08/28 04:07:44;;;;;;;3.25;2.95;;;17.70;99.90;;;;;;619267;231;26558;-64
2022/08/28 04:10:11;;;;;;;3.83;3.08;;;17.50;99.90;;;;;;619250;231;26618;-63
2022/08/28 04:12:39;;;;;;;4.03;3.12;;;17.50;99.90;;;;;;619118;232;26558;-63
2022/08/28 04:15:08;;;;;;;2.90;2.70;;;17.50;99.90;;;;;;618920;232;26530;-63
2022/08/28 04:17:35;;;;;;;3.22;2.97;;;17.50;99.90;;;;;;618920;232;26574;-63
2022/08/28 04:20:02;;;;;;;3.45;3.15;;;17.50;99.90;;;;;;618856;231;26876;-63
2022/08/28 04:22:30;;;;;;;3.60;2.87;;;17.50;99.90;;;;;;618976;231;26639;-63
2022/08/28 04:24:57;;;;;;;4.03;2.97;;;17.50;99.90;;;;;;618938;232;26579;-64
2022/08/28 04:27:24;;;;;;;4.60;3.10;;;17.50;99.90;;;;;;619068;231;26556;-64
2022/08/28 04:29:52;;;;;;;3.25;2.80;;;17.50;99.90;;;;;;618868;232;26830;-64
2022/08/28 04:32:20;;;;;;;3.20;2.90;;;17.50;99.90;;;;;;618708;232;26856;-64
2022/08/28 04:34:47;;;;;;;3.03;2.83;;;16.70;99.90;;;;;;618623;232;26612;-64
2022/08/28 04:37:14;;;;;;;3.95;2.60;;;17.40;99.90;;;;;;618712;232;26976;-64
2022/08/28 04:39:41;;;;;;;3.05;2.40;;;17.40;99.90;;;;;;618590;232;26587;-64
2022/08/28 04:42:08;;;;;;;2.95;2.20;;;17.30;99.90;;;;;;618665;232;26858;-65
2022/08/28 04:44:35;;;;;;;7.20;3.20;;;17.30;99.90;;;;;;618607;231;26624;-64
2022/08/28 04:47:03;;;;;;;3.28;2.92;;;17.30;99.90;;;;;;618640;232;26836;-64
2022/08/28 04:49:30;;;;;;;4.00;3.30;;;17.20;99.90;;;;;;618605;232;26579;-64
2022/08/28 04:51:57;;;;;;;3.97;2.58;;;17.20;99.90;;;;;;618571;232;26639;-64
2022/08/28 04:54:25;;;;;;;4.85;2.75;;;17.20;99.90;;;;;;618666;232;26648;-64
2022/08/28 04:56:53;;;;;;;3.28;2.65;;;17.20;99.90;;;;;;618671;232;26649;-64
2022/08/28 04:59:20;;;;;;;3.85;2.90;;;17.20;99.90;;;;;;618650;232;26566;-64
2022/08/28 05:01:48;;;;;;;2.90;2.60;;;17.10;99.90;;;;;;618592;232;26615;-64
2022/08/28 05:04:18;;;;;;;4.65;2.83;;;17.10;99.90;;;;;;618688;231;26633;-64
2022/08/28 05:06:45;;;;;;;3.42;2.67;;;17.10;99.90;;;;;;620070;230;26623;-64
2022/08/28 05:09:13;;;;;;;4.57;2.70;;;17.10;99.90;;;;;;619689;232;26562;-64
2022/08/28 05:11:41;;;;;;;4.47;3.12;;;17.10;99.90;;;;;;619554;232;27276;-64
2022/08/28 05:14:09;;;;;;;3.75;2.30;;;17.10;99.90;;;;;;619516;232;26642;-64
2022/08/28 05:16:39;;;;;;;3.80;2.58;;;17.10;99.90;;;;;;619268;231;26566;-64
2022/08/28 05:19:07;;;;;;;3.33;2.40;;;17.10;99.90;;;;;;619249;231;26566;-64
2022/08/28 05:21:35;;;;;;;2.45;2.25;;;17.10;99.90;;;;;;619097;229;26601;-64
2022/08/28 05:24:03;;;;;;;2.95;2.53;;;17.10;99.90;;;;;;619077;232;26568;-64
2022/08/28 05:26:30;;;;;;;4.65;2.40;;;17.10;99.90;;;;;;619070;232;26535;-64
2022/08/28 05:28:58;;;;;;;3.53;2.00;;;17.10;99.90;;;;;;618947;232;26838;-64
2022/08/28 05:31:25;;;;;;;3.42;2.55;;;17.10;99.90;;;;;;618948;231;26645;-64
2022/08/28 05:33:52;;;;;;;3.58;2.37;;;17.10;99.90;;;;;;619041;231;26814;-64
2022/08/28 05:36:20;;;;;;;2.33;2.00;;;16.90;99.90;;;;;;619040;232;26881;-64
2022/08/28 05:38:47;;;;;;;3.30;2.40;;;16.90;99.90;;;;;;618895;231;26578;-64
2022/08/28 05:41:19;;;;;;;3.05;2.10;;;17.00;99.90;;;;;;618824;231;26854;-64
2022/08/28 05:43:46;;;;;;;4.35;2.22;;;17.10;99.90;;;;;;618625;231;26633;-64
2022/08/28 05:46:14;;;;;;;5.20;2.50;;;17.00;99.90;;;;;;618657;231;26780;-64
2022/08/28 05:48:41;;;;;;;3.85;2.25;;;17.10;99.90;;;;;;618557;232;26598;-64
2022/08/28 05:51:08;;;;;;;4.25;2.22;;;16.90;99.90;;;;;;618587;231;26866;-65
2022/08/28 05:53:39;;;;;;;5.90;2.08;;;16.80;99.90;;;;;;618565;231;26590;-65
2022/08/28 05:56:04;;;;;;;2.90;1.92;;;16.70;99.90;;;;;;618454;232;26597;-65
2022/08/28 05:58:33;;;;;;;5.53;2.50;;;16.70;99.90;;;;;;618626;231;26618;-65
2022/08/28 06:01:02;;;;;;;3.65;2.72;;;16.50;99.90;;;;;;618572;232;26609;-65
2022/08/28 06:03:30;;;;;;;4.22;2.30;;;16.50;99.90;;;;;;618577;232;26834;-64
2022/08/28 06:05:59;;;;;;;4.68;2.30;;;16.60;99.90;;;;;;618688;231;26603;-64
2022/08/28 06:08:24;;;;;;;2.95;2.20;;;16.60;99.90;;;;;;618542;231;26865;-64
2022/08/28 06:10:51;;;;;;;3.28;2.10;;;16.60;99.90;;;;;;618642;232;26630;-64
2022/08/28 06:13:19;;;;;;;3.95;2.20;;;16.70;99.90;;;;;;618680;232;26841;-64
2022/08/28 06:15:46;;;;;;;4.05;2.10;;;16.70;99.90;;;;;;618696;231;26827;-64
2022/08/28 06:18:13;;;;;;;3.10;2.00;;;16.80;99.90;;;;;;620077;230;26613;-64
2022/08/28 06:20:41;;;;;;;3.37;2.37;;;16.70;99.90;;;;;;620248;231;26811;-64
2022/08/28 06:23:09;;;;;;;3.47;2.00;;;16.70;99.90;;;;;;619880;232;26574;-64
2022/08/28 06:25:38;;;;;;;3.28;2.40;;;16.60;99.90;;;;;;619907;231;26573;-64
2022/08/28 06:28:06;;;;;;;4.22;2.40;;;16.80;99.90;;;;;;619643;232;26531;-64
2022/08/28 06:30:40;;;;;;;5.75;2.60;;;16.90;99.90;;;;;;619490;232;26561;-64
2022/08/28 06:33:07;;;;;;;3.75;2.42;;;17.00;99.90;;;;;;619697;232;26851;-64
2022/08/28 06:35:35;;;;;;;5.05;2.40;;;17.10;99.90;;;;;;619230;231;26546;-64
2022/08/28 06:38:04;;;;;;;4.93;2.33;;;16.90;99.90;;;;;;618372;232;26813;-64
2022/08/28 06:40:47;;;;;;;5.78;2.40;;;16.70;99.90;;;;;;618933;232;26597;-64
2022/08/28 06:43:15;;;;;;;5.03;2.70;;;16.90;99.90;;;;;;618791;232;27289;-63
2022/08/28 06:45:43;;;;;;;4.10;2.50;;;16.90;99.90;;;;;;618940;231;27193;-63
2022/08/28 06:48:10;;;;;;;10.80;2.40;;;16.90;99.90;;;;;;618747;232;26594;-63
2022/08/28 06:50:38;;;;;;;4.43;2.53;;;17.00;99.90;;;;;;618948;232;26911;-63
2022/08/28 06:53:05;;;;;;;3.35;2.53;;;16.90;99.90;;;;;;618909;232;26560;-63
2022/08/28 06:55:32;;;;;;;3.58;2.12;;;17.20;99.90;;;;;;618559;231;26836;-63
2022/08/28 06:58:00;;;;;;;4.65;2.97;;;17.30;99.90;;;;;;618593;232;26629;-64
2022/08/28 07:00:28;;;;;;;7.15;2.40;;;17.30;99.90;;;;;;618521;232;26638;-64
2022/08/28 07:02:56;;;;;;;2.50;2.12;;;17.60;99.90;;;;;;618516;231;26652;-64
2022/08/28 07:05:24;;;;;;;5.45;2.58;;;17.40;99.90;;;;;;618603;232;26623;-64
2022/08/28 07:07:51;;;;;;;5.57;2.72;;;17.40;99.90;;;;;;618654;232;27452;-64
2022/08/28 07:10:19;;;;;;;3.40;2.42;;;17.40;99.90;;;;;;618553;231;26627;-64
2022/08/28 07:12:47;;;;;;;3.72;2.40;;;17.30;99.90;;;;;;618660;232;26603;-64
2022/08/28 07:15:14;;;;;;;3.62;2.20;;;17.30;99.90;;;;;;618563;232;26854;-64
2022/08/28 07:17:41;;;;;;;3.62;2.33;;;17.30;99.90;;;;;;618701;232;26622;-64
2022/08/28 07:20:10;;;;;;;5.35;2.58;;;17.60;99.90;;;;;;618635;232;26998;-64
2022/08/28 07:22:36;;;;;;;3.80;2.55;;;17.70;99.90;;;;;;618666;232;26617;-64
2022/08/28 07:25:04;;;;;;;4.32;2.17;;;17.60;99.90;;;;;;618626;232;26838;-64
2022/08/28 07:27:31;;;;;;;7.15;2.50;;;17.60;99.90;;;;;;618665;232;26651;-64
2022/08/28 07:30:00;;;;;;;6.80;3.12;;;17.50;99.90;;;;;;620156;230;26847;-64
2022/08/28 07:32:27;;;;;;;4.32;2.50;;;17.70;99.90;;;;;;619790;232;26562;-64
2022/08/28 07:34:55;;;;;;;3.70;2.33;;;17.70;99.90;;;;;;619466;232;26617;-64
2022/08/28 07:37:21;;;;;;;5.25;2.90;;;17.80;99.90;;;;;;619502;232;26863;-64
2022/08/28 07:39:49;;;;;;;4.85;2.60;;;17.70;99.90;;;;;;619228;231;26578;-64
2022/08/28 07:44:48;;;;;;;4.37;2.53;;;17.70;99.90;;;;;;617466;232;26557;-64
2022/08/28 07:44:48;;;;;;;5.03;2.97;;;17.70;99.90;;;;;;619255;227;26894;-64
2022/08/28 07:47:16;;;;;;;4.18;2.67;;;17.90;99.90;;;;;;619110;232;26557;-64
2022/08/28 07:49:43;;;;;;;4.90;2.65;;;18.10;99.90;;;;;;618832;231;26620;-64
2022/08/28 07:52:11;;;;;;;2.70;2.35;;;18.20;99.90;;;;;;618880;229;26644;-64
2022/08/28 07:54:39;;;;;;;5.60;2.80;;;18.40;99.90;;;;;;618904;231;26619;-64
2022/08/28 07:57:08;;;;;;;4.75;3.30;;;18.70;99.90;;;;;;618887;231;26616;-64
2022/08/28 07:59:36;;;;;;;4.25;3.03;;;18.70;99.90;;;;;;618799;232;26741;-64
2022/08/28 08:02:03;;;;;;;4.65;2.45;;;18.70;99.90;;;;;;618706;230;26604;-64
2022/08/28 08:04:30;;;;;;;2.85;2.12;;;18.80;99.90;;;;;;618813;231;26613;-65
2022/08/28 08:06:58;;;;;;;6.12;2.70;;;18.80;99.90;;;;;;618609;232;26602;-64
2022/08/28 08:09:26;;;;;;;4.87;2.72;;;18.70;99.90;;;;;;618585;232;26615;-64
2022/08/28 08:11:55;;;;;;;5.78;2.67;;;18.70;99.90;;;;;;618632;232;26651;-65
2022/08/28 08:14:22;;;;;;;5.37;2.20;;;18.70;99.90;;;;;;618631;232;26624;-64
2022/08/28 08:16:51;;;;;;;6.40;2.70;;;18.70;99.90;;;;;;618671;231;26643;-64
2022/08/28 08:19:19;;;;;;;6.50;2.60;;;18.70;99.90;;;;;;618655;232;26631;-64
2022/08/28 08:21:45;;;;;;;6.30;3.03;;;18.70;99.90;;;;;;618517;232;26637;-64
2022/08/28 08:24:19;;;;;;;4.87;2.60;;;18.80;99.90;;;;;;618594;232;26633;-64
2022/08/28 08:26:44;;;;;;;5.53;2.53;;;18.50;99.90;;;;;;618126;232;26621;-64
2022/08/28 08:29:08;;;;;;;5.95;2.85;;;18.30;99.90;;;;;;618401;232;26623;-64
2022/08/28 08:31:36;;;;;;;6.12;2.72;;;18.50;99.90;;;;;;618602;232;26660;-64
2022/08/28 08:34:04;;;;;;;8.38;3.10;;;18.50;99.90;;;;;;618658;232;26616;-64
2022/08/28 08:36:31;;;;;;;4.97;2.60;;;18.50;99.90;;;;;;618590;232;26592;-64
2022/08/28 08:38:58;;;;;;;4.60;2.70;;;18.40;99.90;;;;;;618685;231;26614;-64
2022/08/28 08:41:32;;;;;;;6.60;2.80;;;18.50;99.90;;;;;;620122;230;26978;-64
2022/08/28 08:44:03;;;;;;;6.95;3.12;;;18.40;99.90;;;;;;619708;232;26789;-64
2022/08/28 08:46:32;;;;;;;5.87;2.67;;;18.40;99.90;;;;;;619452;232;26638;-64
2022/08/28 08:49:00;;;;;;;4.53;2.65;;;18.40;99.90;;;;;;619414;232;26613;-64
2022/08/28 08:51:27;;;;;;;4.05;2.58;;;18.60;99.90;;;;;;619002;230;26594;-64
2022/08/28 08:53:57;;;;;;;4.85;2.87;;;18.60;99.90;;;;;;617797;232;26915;-63
2022/08/28 08:56:25;;;;;;;2.78;2.20;;;18.60;99.90;;;;;;619959;230;26570;-64
2022/08/28 08:58:53;;;;;;;5.20;2.58;;;19.30;99.90;;;;;;624851;230;26562;-64
2022/08/28 09:01:26;;;;;;;7.05;2.80;;;18.90;99.90;;;;;;622316;230;26633;-64
2022/08/28 09:03:54;;;;;;;4.45;2.22;;;18.90;99.90;;;;;;618833;231;26541;-63
2022/08/28 09:06:32;;;;;;;3.45;2.53;;;18.50;99.90;;;;;;618581;232;26626;-63
2022/08/28 09:08:59;;;;;;;4.82;3.03;;;18.50;99.90;;;;;;618407;232;26553;-63
2022/08/28 09:11:30;;;;;;;3.55;2.65;;;18.40;99.90;;;;;;618658;230;26881;-63
2022/08/28 09:14:15;;;;;;;3.22;2.35;;;18.50;99.90;;;;;;623122;230;26622;-64
2022/08/28 09:16:42;;;;;;;7.30;3.00;;;18.40;99.90;;;;;;621090;230;26845;-63
2022/08/28 09:19:09;;;;;;;4.40;2.50;;;18.50;99.90;;;;;;624429;230;26650;-63
2022/08/28 09:21:39;;;;;;;4.00;2.55;;;18.50;99.90;;;;;;624541;230;26656;-63
2022/08/28 09:24:07;;;;;;;4.07;2.75;;;18.50;99.90;;;;;;624379;230;26617;-63
2022/08/28 09:26:34;;;;;;;4.35;2.70;;;18.70;99.90;;;;;;624338;230;26637;-64
2022/08/28 09:29:04;;;;;;;4.28;2.75;;;18.60;99.90;;;;;;624424;230;26649;-63
2022/08/28 09:31:32;;;;;;;5.50;2.58;;;18.60;99.90;;;;;;624331;230;26862;-63
2022/08/28 09:34:16;;;;;;;5.12;2.80;;;18.70;99.90;;;;;;624389;230;26785;-63
2022/08/28 09:36:44;;;;;;;2.80;2.40;;;18.60;99.90;;;;;;623513;230;26875;-63
2022/08/28 09:39:28;;;;;;;4.37;2.75;;;18.60;99.90;;;;;;624331;230;26580;-63
2022/08/28 09:44:52;;;;;;;5.25;2.90;;;18.80;99.90;;;;;;624436;230;26617;-62
2022/08/28 09:47:32;;;;;;;3.40;2.40;;;18.80;99.90;;;;;;624466;230;26930;-63
2022/08/28 09:50:11;;;;;;;4.50;2.87;;;18.80;99.90;;;;;;622279;230;26635;-63
2022/08/28 09:52:38;;;;;;;4.47;3.10;;;19.00;99.90;;;;;;620377;230;26634;-63
2022/08/28 09:55:06;;;;;;;4.60;3.10;;;19.00;99.90;;;;;;619927;230;26779;-63
2022/08/28 09:57:34;;;;;;;4.55;3.00;;;19.00;99.90;;;;;;619473;232;26614;-63
2022/08/28 10:00:02;;;;;;;5.03;2.85;;;19.10;99.90;;;;;;619506;232;26625;-63
2022/08/28 10:02:34;;;;;;;4.10;2.70;;;19.00;99.90;;;;;;619239;232;26559;-63
2022/08/28 10:05:07;;;;;;;4.22;2.72;;;19.00;99.90;;;;;;618526;232;26562;-63
2022/08/28 10:07:52;;;;;;;4.37;2.90;;;19.00;99.90;;;;;;619193;232;26550;-63
2022/08/28 10:10:34;;;;;;;4.30;2.45;;;18.70;99.90;;;;;;618909;232;27213;-63
2022/08/28 10:13:16;;;;;;;4.70;2.33;;;18.70;99.90;;;;;;618643;232;26811;-65
2022/08/28 10:15:44;;;;;;;4.62;2.53;;;18.90;99.90;;;;;;609764;232;26596;-63
2022/08/28 10:18:31;;;;;;;6.10;2.75;;;18.90;99.90;;;;;;617541;232;26569;-64
2022/08/28 10:21:02;;;;;;;5.00;2.97;;;18.80;99.90;;;;;;614526;230;26693;-64
2022/08/28 10:23:44;;;;;;;4.47;3.03;;;18.70;99.90;;;;;;618214;232;27173;-63
2022/08/28 10:26:46;;;;;;;5.40;3.10;;;18.70;99.90;;;;;;609766;232;26599;-63
2022/08/28 10:29:40;;;;;;;7.20;3.37;;;18.90;99.90;;;;;;601644;232;26603;-64
2022/08/28 10:32:18;;;;;;;4.93;2.92;;;18.50;99.90;;;;;;617484;232;26821;-64
2022/08/28 10:35:04;;;;;;;3.90;2.50;;;18.40;99.90;;;;;;617887;232;26634;-63
2022/08/28 10:37:40;;;;;;;3.10;2.78;;;18.40;99.90;;;;;;617234;232;26656;-64
2022/08/28 10:40:08;;;;;;;4.90;2.90;;;18.40;99.90;;;;;;618178;232;26598;-63
2022/08/28 10:42:35;;;;;;;3.92;3.08;;;18.60;99.90;;;;;;618547;232;26623;-64
2022/08/28 10:45:05;;;;;;;4.78;2.97;;;18.40;99.90;;;;;;618426;232;26596;-63
2022/08/28 10:47:33;;;;;;;7.55;3.15;;;18.20;99.90;;;;;;618451;232;26901;-63
2022/08/28 10:50:01;;;;;;;4.47;3.25;;;18.20;99.90;;;;;;620696;230;26802;-63
2022/08/28 10:52:30;;;;;;;4.60;3.12;;;18.30;99.90;;;;;;623721;230;26608;-63
2022/08/28 10:55:02;;;;;;;3.45;2.58;;;18.20;99.90;;;;;;624392;230;26853;-63
2022/08/28 10:57:34;;;;;;;5.55;2.95;;;18.30;99.90;;;;;;624473;230;26625;-63
2022/08/28 11:00:00;;;;;;;5.47;3.05;;;18.20;99.90;;;;;;622629;230;26830;-63
2022/08/28 11:02:27;;;;;;;3.42;2.67;;;18.20;99.90;;;;;;618628;232;26578;-63
2022/08/28 11:04:54;;;;;;;4.68;3.00;;;18.20;99.90;;;;;;623988;229;26794;-63
2022/08/28 11:07:22;;;;;;;7.05;3.03;;;18.00;99.90;;;;;;627653;229;26575;-63
2022/08/28 11:09:49;;;;;;;4.37;3.70;;;18.00;99.90;;;;;;626618;229;26815;-63
2022/08/28 11:12:31;;;;;;;6.15;2.92;;;17.80;99.90;;;;;;625371;229;26566;-64
2022/08/28 11:14:59;;;;;;;6.18;3.15;;;18.10;99.90;;;;;;621998;230;26532;-64
2022/08/28 11:17:36;;;;;;;2.90;2.70;;;18.20;99.90;;;;;;623214;229;26779;-63
2022/08/28 11:20:07;;;;;;;3.45;3.15;;;18.20;99.90;;;;;;622426;230;26579;-64
2022/08/28 11:22:35;;;;;;;5.28;3.12;;;18.20;99.90;;;;;;618752;232;26557;-65
2022/08/28 11:25:03;;;;;;;2.97;2.67;;;18.20;99.90;;;;;;618855;232;26573;-62
2022/08/28 11:27:33;;;;;;;5.87;3.53;;;18.40;99.90;;;;;;617964;232;26562;-64
2022/08/28 11:30:03;;;;;;;3.95;2.92;;;18.40;99.90;;;;;;618673;232;26612;-63
2022/08/28 11:32:58;;;;;;;4.05;2.87;;;18.20;99.90;;;;;;620181;230;26611;-63
2022/08/28 11:35:47;;;;;;;5.60;3.08;;;18.20;99.90;;;;;;624462;230;26649;-63
2022/08/28 11:38:26;;;;;;;3.78;2.78;;;18.20;99.90;;;;;;623787;230;26796;-63
2022/08/28 11:40:53;;;;;;;4.40;2.83;;;18.20;99.90;;;;;;624443;230;26635;-64
2022/08/28 11:43:35;;;;;;;5.97;3.42;;;18.40;99.90;;;;;;624371;230;26605;-65
2022/08/28 11:46:03;;;;;;;9.75;3.62;;;18.20;99.90;;;;;;624473;230;26674;-63
2022/08/28 11:48:48;;;;;;;96.87;20.95;;;18.20;99.90;;;;;;624388;230;26619;-65
2022/08/28 11:51:36;;;;;;;110.93;26.30;;;18.30;99.90;;;;;;619123;230;26624;-65
2022/08/28 11:54:09;;;;;;;293.20;41.08;;;18.30;99.90;;;;;;608113;232;26643;-64
2022/08/28 11:56:44;;;;;;;110.85;27.13;;;18.30;99.90;;;;;;618445;232;26605;-66
2022/08/28 11:59:39;;;;;;;92.28;25.10;;;18.20;99.90;;;;;;618461;230;26602;-65
2022/08/28 12:02:27;;;;;;;29.60;10.95;;;18.20;99.90;;;;;;617791;232;26887;-66
2022/08/28 12:04:56;;;;;;;32.72;12.48;;;18.20;99.90;;;;;;616219;232;26649;-66
2022/08/28 12:07:23;;;;;;;55.60;14.95;;;18.40;99.90;;;;;;618475;232;26613;-66
2022/08/28 12:09:51;;;;;;;24.70;9.30;;;18.60;99.90;;;;;;623075;230;26851;-66
2022/08/28 12:12:53;;;;;;;39.92;13.02;;;18.50;99.90;;;;;;624398;230;26615;-65
2022/08/28 12:15:41;;;;;;;31.87;11.73;;;18.50;99.90;;;;;;622727;228;26624;-65
2022/08/28 12:18:41;;;;;;;27.80;10.60;;;18.80;99.90;;;;;;625932;229;26529;-65
2022/08/28 12:21:11;;;;;;;21.62;10.10;;;19.10;99.90;;;;;;624288;230;26643;-65
2022/08/28 12:23:39;;;;;;;29.98;10.70;;;18.80;99.90;;;;;;625052;230;26604;-65
2022/08/28 12:26:07;;;;;;;17.52;8.07;;;18.80;99.90;;;;;;624908;230;26568;-65
2022/08/28 12:28:52;;;;;;;12.30;5.80;;;18.60;99.90;;;;;;625056;230;26555;-65
2022/08/28 12:32:10;;;;;;;21.27;7.62;;;18.60;99.90;;;;;;621221;230;26579;-65
2022/08/28 12:33:53;;;;;;;12.37;6.45;;;18.80;99.90;;;;;;622970;230;26781;-65
2022/08/28 12:36:25;;;;;;;12.73;5.55;;;18.70;99.90;;;;;;623460;229;26615;-65
2022/08/28 12:38:47;;;;;;;12.70;5.60;;;18.70;99.90;;;;;;621922;230;27010;-65
2022/08/28 12:41:15;;;;;;;10.32;5.22;;;18.30;99.90;;;;;;623989;230;26601;-65
2022/08/28 12:43:43;;;;;;;10.05;5.10;;;18.80;99.90;;;;;;622480;230;26786;-65
2022/08/28 12:46:15;;;;;;;5.40;4.03;;;18.90;99.90;;;;;;624794;230;26606;-65
2022/08/28 12:48:55;;;;;;;6.70;4.28;;;19.00;99.90;;;;;;624428;230;26817;-65
2022/08/28 12:51:23;;;;;;;6.55;4.40;;;19.10;99.90;;;;;;623441;229;26561;-65
2022/08/28 12:53:51;;;;;;;7.57;4.47;;;19.20;99.90;;;;;;623232;230;26809;-65
2022/08/28 12:56:18;;;;;;;5.28;3.30;;;19.30;99.90;;;;;;623290;230;26774;-65
2022/08/28 12:58:46;;;;;;;5.97;4.57;;;19.10;99.90;;;;;;623137;231;26579;-65
2022/08/28 13:01:14;;;;;;;5.30;3.47;;;19.20;99.90;;;;;;623163;231;26551;-65
2022/08/28 13:03:45;;;;;;;5.50;3.95;;;19.10;99.90;;;;;;623165;231;26540;-66